Time;durP1;ratioP1;P1;durP2;ratioP2;P2;SDS_P1;SDS_P2;PMS_P1;PMS_P2;Temp;Humidity;BMP_temperature;BMP_pressure;BME280_temperature;BME280_humidity;BME280_pressure;Samples;Min_cycle;Max_cycle;Signal;HPM_P1;HPM_P2
2021/12/20 00:01:16;;;;;;;3.70;2.57;;;7.70;79.40;;;;;;4990372;28;20496;-46
2021/12/20 00:03:43;;;;;;;3.40;2.30;;;7.70;79.40;;;;;;5001584;28;20681;-46
2021/12/20 00:06:10;;;;;;;3.40;3.00;;;7.60;79.60;;;;;;5000489;28;20479;-46
2021/12/20 00:08:37;;;;;;;3.87;3.33;;;7.70;79.50;;;;;;4989367;28;20503;-46
2021/12/20 00:11:04;;;;;;;3.00;2.77;;;7.60;79.60;;;;;;5001750;28;20959;-46
2021/12/20 00:13:31;;;;;;;4.60;3.10;;;7.60;79.70;;;;;;4986216;28;20460;-46
2021/12/20 00:15:58;;;;;;;3.60;3.30;;;7.70;79.70;;;;;;4998802;28;20457;-46
2021/12/20 00:18:25;;;;;;;3.57;3.07;;;7.70;79.60;;;;;;5002144;28;20460;-46
2021/12/20 00:20:52;;;;;;;4.67;2.90;;;7.70;79.60;;;;;;4999936;28;20476;-46
2021/12/20 00:23:20;;;;;;;4.43;3.50;;;7.70;79.70;;;;;;5000652;28;20500;-46
2021/12/20 00:25:48;;;;;;;5.50;4.20;;;7.70;79.80;;;;;;4980219;28;21049;-46
2021/12/20 00:28:17;;;;;;;6.03;3.80;;;7.70;79.80;;;;;;4983660;28;20542;-46
2021/12/20 00:30:45;;;;;;;4.97;3.63;;;7.80;79.80;;;;;;5000640;28;20456;-46
2021/12/20 00:33:12;;;;;;;4.13;3.83;;;7.70;79.60;;;;;;4997854;28;20995;-46
2021/12/20 00:35:39;;;;;;;6.87;4.10;;;7.70;79.80;;;;;;4990838;28;20453;-46
2021/12/20 00:40:52;;;;;;;4.30;3.90;;;7.60;80.20;;;;;;4999540;28;21012;-46
2021/12/20 00:43:19;;;;;;;6.40;3.67;;;7.60;80.40;;;;;;5000256;28;20454;-46
2021/12/20 00:45:45;;;;;;;5.47;4.47;;;7.60;80.50;;;;;;4996820;28;20449;-46
2021/12/20 00:48:13;;;;;;;4.03;3.63;;;7.60;80.50;;;;;;4997971;28;20499;-46
2021/12/20 00:50:41;;;;;;;7.83;5.60;;;7.60;80.60;;;;;;4998101;28;20453;-46
2021/12/20 00:53:09;;;;;;;11.50;6.87;;;7.50;80.60;;;;;;5000189;28;20540;-46
2021/12/20 00:55:36;;;;;;;7.40;5.60;;;7.50;80.70;;;;;;5000930;28;20457;-46
2021/12/20 00:58:03;;;;;;;7.23;4.93;;;7.60;80.60;;;;;;5001065;28;20499;-46
2021/12/20 01:00:36;;;;;;;6.70;5.43;;;7.60;80.50;;;;;;4998343;28;20457;-46
2021/12/20 01:03:05;;;;;;;7.20;6.50;;;7.60;80.70;;;;;;4987585;28;20829;-46
2021/12/20 01:05:33;;;;;;;4.93;4.43;;;7.50;80.90;;;;;;5000360;28;20465;-46
2021/12/20 01:08:03;;;;;;;6.77;5.00;;;7.50;80.90;;;;;;4968511;28;20890;-46
2021/12/20 01:10:30;;;;;;;7.70;5.67;;;7.50;80.90;;;;;;4996901;28;20452;-46
2021/12/20 01:13:00;;;;;;;5.20;4.50;;;7.50;81.10;;;;;;5001121;28;21046;-46
2021/12/20 01:15:43;;;;;;;6.80;5.03;;;7.60;81.30;;;;;;4998332;28;20552;-46
2021/12/20 01:18:10;;;;;;;4.90;4.30;;;7.50;81.30;;;;;;4998261;28;20825;-46
2021/12/20 01:20:37;;;;;;;5.37;4.43;;;7.50;81.30;;;;;;4998367;28;20483;-46
2021/12/20 01:23:04;;;;;;;6.40;4.90;;;7.50;81.50;;;;;;4994620;28;20479;-46
2021/12/20 01:25:32;;;;;;;7.00;4.93;;;7.50;81.50;;;;;;4997606;28;20600;-46
2021/12/20 01:27:59;;;;;;;6.23;4.83;;;7.60;81.40;;;;;;4999770;28;20865;-46
2021/12/20 01:30:27;;;;;;;4.67;4.23;;;7.60;81.40;;;;;;4991058;28;20661;-46
2021/12/20 01:32:54;;;;;;;6.17;5.10;;;7.50;81.50;;;;;;4999650;28;20457;-46
2021/12/20 01:35:23;;;;;;;6.70;4.30;;;7.60;81.40;;;;;;5000020;28;20457;-46
2021/12/20 01:37:52;;;;;;;7.47;6.10;;;7.60;81.30;;;;;;4999176;28;20867;-46
2021/12/20 01:40:21;;;;;;;5.27;4.03;;;7.60;81.00;;;;;;5002062;28;20457;-46
2021/12/20 01:42:49;;;;;;;6.10;4.80;;;7.60;81.10;;;;;;4994719;28;20532;-46
2021/12/20 01:45:19;;;;;;;5.60;4.87;;;7.50;81.30;;;;;;4998294;28;20471;-46
2021/12/20 01:47:51;;;;;;;4.23;3.83;;;7.60;81.00;;;;;;5001603;28;20491;-46
2021/12/20 01:50:40;;;;;;;6.77;4.80;;;7.50;81.20;;;;;;4980387;28;20498;-46
2021/12/20 01:53:21;;;;;;;5.10;4.00;;;7.50;81.40;;;;;;4999048;28;20826;-46
2021/12/20 01:55:50;;;;;;;6.70;5.17;;;7.50;81.50;;;;;;4982764;28;20719;-46
2021/12/20 01:58:17;;;;;;;4.87;4.07;;;7.50;81.50;;;;;;4999384;28;20469;-46
2021/12/20 02:01:01;;;;;;;6.37;4.63;;;7.40;81.60;;;;;;5000830;28;20539;-46
2021/12/20 02:03:29;;;;;;;6.60;3.27;;;7.50;81.70;;;;;;4986096;28;20457;-46
2021/12/20 02:05:59;;;;;;;6.33;4.97;;;7.40;81.70;;;;;;4983059;28;21025;-46
2021/12/20 02:08:28;;;;;;;6.63;4.57;;;7.40;81.80;;;;;;4999887;28;20864;-46
2021/12/20 02:10:58;;;;;;;8.87;4.20;;;7.40;81.70;;;;;;4999886;28;20452;-46
2021/12/20 02:13:30;;;;;;;5.33;4.53;;;7.40;81.80;;;;;;4997797;28;20571;-46
2021/12/20 02:15:58;;;;;;;4.43;3.83;;;7.40;81.80;;;;;;4982485;28;20457;-46
2021/12/20 02:18:26;;;;;;;5.60;4.20;;;7.40;81.90;;;;;;5001864;28;20874;-46
2021/12/20 02:20:53;;;;;;;8.30;5.07;;;7.40;81.80;;;;;;4995740;28;20555;-46
2021/12/20 02:23:20;;;;;;;4.83;3.70;;;7.40;81.90;;;;;;4997030;28;20445;-46
2021/12/20 02:25:46;;;;;;;5.53;4.50;;;7.40;82.00;;;;;;4999731;28;20502;-46
2021/12/20 02:28:17;;;;;;;6.10;3.97;;;7.40;81.90;;;;;;5001719;28;20491;-46
2021/12/20 02:38:49;;;;;;;8.33;5.13;;;7.40;82.10;;;;;;4999620;28;20460;-46
2021/12/20 02:41:27;;;;;;;5.63;4.60;;;7.40;82.10;;;;;;5002996;28;21100;-46
2021/12/20 02:43:58;;;;;;;6.30;3.80;;;7.40;82.10;;;;;;5001615;28;20452;-46
2021/12/20 02:48:56;;;;;;;6.47;4.80;;;7.50;82.10;;;;;;5002827;28;20488;-46
2021/12/20 02:51:26;;;;;;;5.10;4.47;;;7.50;81.90;;;;;;5002038;28;20919;-46
2021/12/20 02:53:57;;;;;;;5.70;4.70;;;7.50;81.70;;;;;;5001239;28;20445;-46
2021/12/20 02:56:24;;;;;;;6.00;4.53;;;7.50;81.70;;;;;;5004167;28;20452;-46
2021/12/20 02:58:52;;;;;;;6.10;5.10;;;7.50;81.70;;;;;;4986644;28;20476;-46
2021/12/20 03:01:20;;;;;;;6.20;5.60;;;7.50;81.70;;;;;;5005379;28;20506;-46
2021/12/20 03:03:48;;;;;;;8.63;4.60;;;7.40;81.70;;;;;;5002531;28;20569;-46
2021/12/20 03:06:26;;;;;;;6.93;4.17;;;7.40;81.90;;;;;;5003092;28;20893;-46
2021/12/20 03:08:55;;;;;;;6.43;4.80;;;7.40;81.70;;;;;;5002076;28;20547;-46
2021/12/20 03:11:26;;;;;;;8.00;4.70;;;7.40;81.80;;;;;;4996776;28;20815;-46
2021/12/20 03:14:04;;;;;;;4.57;4.17;;;7.40;81.80;;;;;;5000589;28;20548;-46
2021/12/20 03:16:33;;;;;;;7.00;4.83;;;7.40;82.00;;;;;;4984323;28;20449;-46
2021/12/20 03:19:04;;;;;;;6.20;5.60;;;7.40;81.60;;;;;;4998661;28;20947;-46
2021/12/20 03:21:31;;;;;;;5.20;4.70;;;7.40;81.60;;;;;;4990986;28;20468;-46
2021/12/20 03:23:58;;;;;;;6.47;5.40;;;7.50;81.50;;;;;;5000051;28;20476;-46
2021/12/20 03:26:25;;;;;;;5.10;3.90;;;7.40;81.30;;;;;;5001402;28;20844;-46
2021/12/20 03:28:51;;;;;;;5.27;4.77;;;7.40;81.50;;;;;;4986775;28;20489;-46
2021/12/20 03:31:19;;;;;;;5.23;4.17;;;7.50;81.40;;;;;;5000001;28;20476;-46
2021/12/20 03:33:45;;;;;;;5.57;4.93;;;7.50;81.30;;;;;;5001791;28;20456;-46
2021/12/20 03:36:13;;;;;;;4.37;3.97;;;7.40;81.50;;;;;;4998527;28;20500;-46
2021/12/20 03:38:39;;;;;;;4.30;3.90;;;7.40;81.60;;;;;;4970014;28;20461;-46
2021/12/20 03:41:06;;;;;;;7.07;4.90;;;7.40;81.10;;;;;;5001904;28;20841;-46
2021/12/20 03:43:34;;;;;;;5.67;4.20;;;7.40;80.90;;;;;;5001392;28;20453;-46
2021/12/20 03:46:05;;;;;;;5.97;4.13;;;7.40;81.10;;;;;;4986452;28;20460;-46
2021/12/20 03:48:32;;;;;;;5.30;4.53;;;7.40;81.00;;;;;;4990545;28;20489;-46
2021/12/20 03:51:01;;;;;;;5.97;4.50;;;7.40;81.00;;;;;;5001037;28;20965;-46
2021/12/20 03:53:30;;;;;;;4.90;4.03;;;7.40;81.00;;;;;;4995676;28;20466;-46
2021/12/20 03:55:58;;;;;;;5.57;4.07;;;7.40;81.10;;;;;;4985931;28;20460;-49
2021/12/20 03:58:27;;;;;;;6.73;4.00;;;7.30;81.20;;;;;;5001069;28;20480;-49
2021/12/20 04:00:59;;;;;;;4.70;4.10;;;7.40;81.20;;;;;;5000919;28;20469;-49
2021/12/20 04:03:29;;;;;;;5.20;3.30;;;7.40;81.00;;;;;;4984631;28;20457;-49
2021/12/20 04:05:56;;;;;;;6.43;3.80;;;7.40;80.90;;;;;;4983106;28;20461;-49
2021/12/20 04:08:23;;;;;;;5.77;3.93;;;7.40;80.90;;;;;;4985551;28;20492;-49
2021/12/20 04:10:50;;;;;;;4.20;3.63;;;7.40;80.90;;;;;;4997463;28;20518;-49
2021/12/20 04:13:17;;;;;;;5.50;3.40;;;7.40;80.70;;;;;;4997956;28;21088;-49
2021/12/20 04:15:44;;;;;;;6.83;4.00;;;7.40;80.30;;;;;;4999620;28;21208;-49
2021/12/20 04:18:11;;;;;;;5.70;3.83;;;7.40;80.00;;;;;;4999417;28;20475;-49
2021/12/20 04:20:37;;;;;;;4.60;3.43;;;7.40;80.10;;;;;;5000608;28;20813;-49
2021/12/20 04:23:04;;;;;;;5.87;4.03;;;7.40;80.20;;;;;;4999181;28;20495;-49
2021/12/20 04:25:31;;;;;;;6.63;4.00;;;7.40;80.30;;;;;;5000408;28;20977;-49
2021/12/20 04:27:58;;;;;;;7.33;3.27;;;7.40;80.20;;;;;;4983896;28;20463;-49
2021/12/20 04:30:28;;;;;;;3.27;2.80;;;7.40;80.00;;;;;;5001026;28;20503;-49
2021/12/20 04:32:55;;;;;;;7.10;2.83;;;7.40;79.80;;;;;;5000081;28;20844;-49
2021/12/20 04:35:22;;;;;;;4.23;2.73;;;7.40;79.40;;;;;;5001274;28;20540;-50
2021/12/20 04:37:50;;;;;;;2.40;2.20;;;7.40;79.20;;;;;;5002638;28;20467;-49
2021/12/20 04:40:20;;;;;;;6.13;2.90;;;7.40;78.80;;;;;;4999857;28;20836;-49
2021/12/20 04:42:52;;;;;;;6.30;2.50;;;7.40;78.70;;;;;;4998031;28;20472;-49
2021/12/20 04:45:20;;;;;;;3.17;2.20;;;7.40;78.50;;;;;;4985564;28;23904;-49
2021/12/20 04:47:47;;;;;;;6.57;5.60;;;7.40;78.20;;;;;;5000917;28;20465;-49
2021/12/20 04:50:14;;;;;;;3.33;1.83;;;7.40;77.70;;;;;;4996343;28;20488;-49
2021/12/20 04:52:41;;;;;;;7.23;2.97;;;7.40;77.80;;;;;;4999758;28;20472;-49
2021/12/20 04:55:10;;;;;;;3.03;2.30;;;7.40;78.00;;;;;;4997951;28;20460;-50
2021/12/20 04:57:38;;;;;;;3.17;2.33;;;7.40;77.80;;;;;;5002115;28;20456;-50
2021/12/20 05:00:08;;;;;;;3.40;2.00;;;7.40;77.80;;;;;;4998136;28;20842;-50
2021/12/20 05:02:35;;;;;;;5.23;2.33;;;7.40;77.80;;;;;;4998914;28;21030;-50
2021/12/20 05:05:02;;;;;;;2.00;1.80;;;7.40;76.90;;;;;;4997505;28;20475;-50
2021/12/20 05:07:29;;;;;;;9.03;2.67;;;7.40;76.70;;;;;;5000152;28;20520;-50
2021/12/20 05:10:00;;;;;;;3.37;2.10;;;7.30;77.00;;;;;;4979628;28;20523;-49
2021/12/20 05:12:27;;;;;;;3.97;2.03;;;7.30;77.50;;;;;;4981628;28;20460;-50
2021/12/20 05:14:54;;;;;;;6.57;2.20;;;7.40;77.40;;;;;;4999991;28;20464;-50
2021/12/20 05:17:21;;;;;;;4.27;2.13;;;7.40;77.40;;;;;;4980608;28;20467;-50
2021/12/20 05:19:48;;;;;;;4.07;1.90;;;7.40;77.10;;;;;;5002086;28;20487;-50
2021/12/20 05:22:15;;;;;;;3.13;2.30;;;7.30;77.30;;;;;;4980929;28;20817;-50
2021/12/20 05:24:41;;;;;;;6.87;2.50;;;7.30;77.30;;;;;;5002823;28;20716;-50
2021/12/20 05:27:08;;;;;;;3.20;3.00;;;7.40;76.80;;;;;;4997118;28;20472;-50
2021/12/20 05:29:35;;;;;;;5.90;2.57;;;7.40;76.90;;;;;;5001520;28;20491;-50
2021/12/20 05:32:05;;;;;;;3.80;1.87;;;7.40;76.80;;;;;;4999163;28;20468;-50
2021/12/20 05:34:33;;;;;;;4.50;2.73;;;7.40;77.00;;;;;;4982158;28;20540;-50
2021/12/20 05:37:00;;;;;;;2.80;2.50;;;7.40;77.00;;;;;;4987103;28;20461;-50
2021/12/20 05:39:27;;;;;;;2.67;2.43;;;7.40;77.10;;;;;;4985294;28;20471;-50
2021/12/20 05:41:54;;;;;;;9.10;2.90;;;7.40;76.90;;;;;;4998516;28;20457;-50
2021/12/20 05:44:21;;;;;;;9.00;3.47;;;7.40;77.10;;;;;;4983661;28;20464;-50
2021/12/20 05:46:47;;;;;;;5.07;2.50;;;7.40;77.40;;;;;;4985097;28;20461;-50
2021/12/20 05:49:14;;;;;;;5.03;2.50;;;7.40;77.10;;;;;;4998975;28;20496;-50
2021/12/20 05:51:41;;;;;;;3.60;2.40;;;7.40;76.80;;;;;;5000052;28;20452;-50
2021/12/20 05:54:07;;;;;;;5.50;2.67;;;7.30;76.90;;;;;;4999143;28;20464;-50
2021/12/20 05:56:34;;;;;;;6.60;3.00;;;7.30;78.00;;;;;;4997447;28;20459;-50
2021/12/20 05:59:01;;;;;;;9.37;2.53;;;7.30;79.00;;;;;;4987855;28;20488;-50
2021/12/20 06:01:29;;;;;;;4.70;2.83;;;7.30;79.80;;;;;;4981315;28;20469;-50
2021/12/20 06:03:57;;;;;;;10.17;2.80;;;7.20;80.20;;;;;;5003424;28;20480;-50
2021/12/20 06:06:27;;;;;;;5.97;2.80;;;7.10;80.60;;;;;;4989565;28;20980;-50
2021/12/20 06:08:54;;;;;;;7.03;3.40;;;7.10;80.90;;;;;;5002540;28;21024;-49
2021/12/20 06:11:21;;;;;;;8.63;2.90;;;7.10;81.30;;;;;;5004075;28;20463;-49
2021/12/20 06:13:48;;;;;;;5.60;3.73;;;7.00;81.60;;;;;;5002834;28;20461;-49
2021/12/20 06:16:15;;;;;;;5.50;2.83;;;7.10;81.90;;;;;;5000943;28;20480;-49
2021/12/20 06:18:42;;;;;;;5.63;3.43;;;7.10;82.60;;;;;;5004870;28;20456;-49
2021/12/20 06:21:09;;;;;;;11.07;3.53;;;7.10;82.80;;;;;;5000447;28;20456;-49
2021/12/20 06:23:36;;;;;;;6.37;2.70;;;7.20;83.30;;;;;;5003001;28;20547;-49
2021/12/20 06:26:03;;;;;;;4.03;2.70;;;7.10;83.30;;;;;;5002828;28;20466;-49
2021/12/20 06:28:30;;;;;;;6.20;3.90;;;7.20;83.80;;;;;;4990759;28;20565;-49
2021/12/20 06:30:57;;;;;;;6.17;2.97;;;7.20;83.90;;;;;;5002568;28;20496;-49
2021/12/20 06:33:24;;;;;;;9.37;2.90;;;7.20;83.80;;;;;;5003290;28;20464;-49
2021/12/20 06:35:52;;;;;;;8.67;3.37;;;7.20;84.10;;;;;;4986530;28;21124;-49
2021/12/20 06:38:20;;;;;;;8.47;3.13;;;7.20;84.10;;;;;;5000793;28;20471;-50
2021/12/20 06:40:48;;;;;;;8.63;2.27;;;7.20;84.10;;;;;;4981897;28;20465;-49
2021/12/20 06:43:16;;;;;;;6.17;2.63;;;7.10;84.20;;;;;;5001160;28;20473;-50
2021/12/20 06:45:44;;;;;;;10.00;3.53;;;7.10;84.40;;;;;;4986143;28;20465;-50
2021/12/20 06:48:10;;;;;;;10.10;3.43;;;7.20;84.40;;;;;;4983779;28;20468;-50
2021/12/20 06:50:40;;;;;;;7.03;3.00;;;7.10;84.30;;;;;;4992781;28;20491;-50
2021/12/20 06:53:07;;;;;;;7.07;3.10;;;7.10;84.40;;;;;;5002844;28;20460;-49
2021/12/20 06:55:35;;;;;;;6.30;3.30;;;7.10;84.40;;;;;;5002794;28;20463;-49
2021/12/20 06:58:04;;;;;;;5.43;2.80;;;7.10;84.40;;;;;;5002517;28;20842;-49
2021/12/20 07:00:31;;;;;;;6.73;3.47;;;7.00;84.30;;;;;;5005354;28;20492;-50
2021/12/20 07:02:59;;;;;;;10.33;3.20;;;7.00;84.80;;;;;;4988038;28;20874;-49
2021/12/20 07:05:26;;;;;;;6.33;3.43;;;7.00;84.80;;;;;;5002239;28;20993;-50
2021/12/20 07:07:53;;;;;;;7.57;3.63;;;7.00;84.90;;;;;;5000657;28;20595;-48
2021/12/20 07:10:20;;;;;;;5.13;3.23;;;6.90;84.90;;;;;;4987978;28;20501;-48
2021/12/20 07:12:47;;;;;;;8.50;3.80;;;6.90;84.90;;;;;;4998470;28;20903;-48
2021/12/20 07:15:15;;;;;;;3.37;2.77;;;6.90;85.00;;;;;;4984383;28;20599;-48
2021/12/20 07:17:42;;;;;;;5.60;4.30;;;6.80;85.00;;;;;;5003479;28;20548;-48
2021/12/20 07:20:10;;;;;;;5.90;3.70;;;6.80;84.90;;;;;;5003300;28;20464;-48
2021/12/20 07:22:37;;;;;;;5.43;3.93;;;6.80;84.80;;;;;;4982623;28;20456;-48
2021/12/20 07:25:04;;;;;;;10.23;3.60;;;6.80;84.60;;;;;;4989632;28;20475;-49
2021/12/20 07:27:31;;;;;;;4.60;2.43;;;6.90;84.00;;;;;;4984512;28;20457;-49
2021/12/20 07:29:59;;;;;;;4.53;2.40;;;6.90;83.30;;;;;;5004577;28;20492;-49
2021/12/20 07:32:25;;;;;;;10.43;3.13;;;6.80;83.20;;;;;;5003009;28;20471;-48
2021/12/20 07:34:52;;;;;;;5.40;2.90;;;6.80;83.00;;;;;;5001994;28;20457;-49
2021/12/20 07:37:19;;;;;;;7.70;3.10;;;6.70;83.00;;;;;;4981874;28;20453;-49
2021/12/20 07:39:46;;;;;;;5.93;3.00;;;6.60;83.10;;;;;;5001390;28;20855;-48
2021/12/20 07:42:12;;;;;;;8.13;3.87;;;6.60;83.00;;;;;;5002359;28;20465;-49
2021/12/20 07:44:39;;;;;;;6.40;2.43;;;6.60;82.80;;;;;;5000817;28;20961;-48
2021/12/20 07:47:06;;;;;;;10.80;3.07;;;6.60;82.60;;;;;;4985214;28;20472;-49
2021/12/20 07:49:34;;;;;;;12.60;4.00;;;6.50;82.70;;;;;;4985379;28;20866;-48
2021/12/20 07:52:03;;;;;;;10.13;2.70;;;6.50;82.60;;;;;;4982953;28;20467;-48
2021/12/20 07:54:30;;;;;;;11.77;4.70;;;6.50;82.60;;;;;;4997779;28;20469;-49
2021/12/20 07:56:57;;;;;;;13.40;3.33;;;6.50;82.40;;;;;;4998281;28;20468;-49
2021/12/20 07:59:24;;;;;;;10.17;3.53;;;6.50;82.00;;;;;;5001746;28;20490;-48
2021/12/20 08:01:51;;;;;;;4.97;2.70;;;6.50;81.90;;;;;;4999409;28;20473;-48
2021/12/20 08:04:18;;;;;;;5.03;2.23;;;6.50;81.90;;;;;;4999583;28;20469;-48
2021/12/20 08:06:45;;;;;;;4.57;2.50;;;6.40;81.90;;;;;;4988242;28;20548;-48
2021/12/20 08:09:14;;;;;;;15.73;3.10;;;6.50;81.80;;;;;;4991459;28;20473;-49
2021/12/20 08:11:42;;;;;;;12.73;3.80;;;6.40;81.70;;;;;;5001818;28;20481;-49
2021/12/20 08:14:10;;;;;;;5.67;2.33;;;6.30;81.70;;;;;;5001055;28;21021;-49
2021/12/20 08:16:38;;;;;;;7.23;2.60;;;6.30;81.60;;;;;;4999100;28;20966;-48
2021/12/20 08:19:05;;;;;;;9.67;3.07;;;6.30;81.30;;;;;;4998321;28;20460;-49
2021/12/20 08:21:31;;;;;;;13.60;3.43;;;6.30;81.30;;;;;;4984068;28;20460;-48
2021/12/20 08:23:58;;;;;;;4.63;2.70;;;6.30;81.20;;;;;;4996231;28;20464;-48
2021/12/20 08:26:26;;;;;;;10.70;2.50;;;6.30;81.20;;;;;;4975742;28;20472;-49
2021/12/20 08:28:57;;;;;;;8.70;2.97;;;6.30;80.90;;;;;;4997489;28;20505;-51
2021/12/20 08:31:23;;;;;;;9.30;3.60;;;6.30;81.00;;;;;;4999817;28;20491;-49
2021/12/20 08:33:50;;;;;;;14.90;2.93;;;6.30;81.10;;;;;;4998717;28;20483;-49
2021/12/20 08:36:17;;;;;;;5.73;2.83;;;6.30;81.10;;;;;;5003246;28;20469;-48
2021/12/20 08:38:44;;;;;;;12.77;3.03;;;6.20;81.10;;;;;;4987464;28;20492;-49
2021/12/20 08:41:11;;;;;;;7.73;3.23;;;6.20;81.00;;;;;;4998453;28;20464;-49
2021/12/20 08:43:39;;;;;;;7.97;3.00;;;6.20;80.90;;;;;;4981163;28;20471;-49
2021/12/20 08:46:06;;;;;;;7.80;2.50;;;6.10;81.10;;;;;;4996370;28;20464;-50
2021/12/20 08:48:33;;;;;;;6.87;2.87;;;6.10;81.00;;;;;;4982651;28;20464;-49
2021/12/20 08:51:01;;;;;;;15.17;3.50;;;6.10;81.00;;;;;;4996633;28;20489;-50
2021/12/20 08:53:29;;;;;;;12.43;3.13;;;6.10;81.20;;;;;;4997346;28;20821;-49
2021/12/20 08:55:56;;;;;;;5.40;2.80;;;6.10;80.80;;;;;;5003010;28;20452;-49
2021/12/20 08:58:24;;;;;;;12.20;3.40;;;6.00;80.30;;;;;;5001210;28;20484;-49
2021/12/20 09:00:52;;;;;;;9.07;3.20;;;6.00;80.10;;;;;;4999413;28;20467;-49
2021/12/20 09:03:19;;;;;;;12.63;3.00;;;6.00;80.30;;;;;;4999379;28;20476;-49
2021/12/20 09:05:46;;;;;;;9.00;3.90;;;6.10;80.00;;;;;;5000134;28;20803;-49
2021/12/20 09:08:15;;;;;;;16.17;3.20;;;6.10;80.20;;;;;;4997876;28;20495;-50
2021/12/20 09:10:42;;;;;;;13.00;3.00;;;6.10;80.00;;;;;;5002746;28;20880;-49
2021/12/20 09:13:09;;;;;;;19.40;4.07;;;6.10;79.50;;;;;;4993827;28;20977;-49
2021/12/20 09:15:36;;;;;;;8.70;4.70;;;6.00;79.40;;;;;;4997898;28;20551;-49
2021/12/20 09:18:04;;;;;;;11.50;3.60;;;6.10;79.00;;;;;;5000734;28;20511;-50
2021/12/20 09:20:32;;;;;;;6.50;2.93;;;6.10;79.10;;;;;;4997561;28;20465;-50
2021/12/20 09:23:07;;;;;;;8.63;4.20;;;6.10;79.00;;;;;;5001540;28;20464;-50
2021/12/20 09:25:36;;;;;;;9.57;2.50;;;6.10;79.20;;;;;;4992585;28;20488;-49
2021/12/20 09:28:05;;;;;;;6.30;2.50;;;6.20;79.40;;;;;;4997204;28;20822;-49
2021/12/20 09:30:32;;;;;;;12.27;3.53;;;6.30;79.30;;;;;;4996713;28;20563;-49
2021/12/20 09:33:00;;;;;;;5.90;2.87;;;6.30;79.40;;;;;;4980690;28;20452;-50
2021/12/20 09:35:27;;;;;;;4.00;2.80;;;6.40;77.90;;;;;;4987351;28;20946;-51
2021/12/20 09:37:54;;;;;;;5.17;2.87;;;6.40;77.50;;;;;;5006096;28;20503;-49
2021/12/20 09:40:34;;;;;;;6.30;2.27;;;6.50;77.50;;;;;;5003329;28;20464;-51
2021/12/20 09:43:04;;;;;;;6.80;3.10;;;6.50;77.40;;;;;;5005924;28;20483;-49
2021/12/20 09:45:32;;;;;;;8.80;3.47;;;6.60;76.50;;;;;;5002570;28;20468;-50
2021/12/20 09:48:00;;;;;;;8.50;3.00;;;6.70;75.30;;;;;;4987192;28;20997;-49
2021/12/20 09:50:28;;;;;;;6.07;2.17;;;6.70;75.70;;;;;;5001849;28;20913;-49
2021/12/20 09:52:56;;;;;;;13.53;3.47;;;6.80;75.10;;;;;;4987529;28;20458;-49
2021/12/20 09:55:23;;;;;;;12.60;3.77;;;6.80;74.80;;;;;;5000039;28;20460;-49
2021/12/20 09:57:50;;;;;;;6.00;3.10;;;6.90;75.40;;;;;;4999541;28;20456;-49
2021/12/20 10:00:20;;;;;;;11.67;2.70;;;7.00;75.70;;;;;;5003450;28;20461;-49
2021/12/20 10:02:47;;;;;;;12.17;3.90;;;7.10;75.10;;;;;;5003408;28;20500;-49
2021/12/20 10:05:18;;;;;;;8.67;4.40;;;7.20;74.70;;;;;;5003001;28;20502;-49
2021/12/20 10:07:51;;;;;;;9.80;2.50;;;7.30;75.00;;;;;;4989426;28;20471;-49
2021/12/20 10:10:43;;;;;;;7.07;2.60;;;7.50;74.40;;;;;;4976198;28;20564;-49
2021/12/20 10:13:29;;;;;;;8.90;3.60;;;7.50;74.40;;;;;;5003699;28;20973;-49
2021/12/20 10:15:58;;;;;;;4.03;2.53;;;7.60;73.70;;;;;;4983041;28;21169;-49
2021/12/20 10:18:26;;;;;;;7.70;2.93;;;7.70;72.70;;;;;;4986690;28;20463;-49
2021/12/20 10:21:01;;;;;;;11.80;4.13;;;7.70;72.70;;;;;;4981360;28;21027;-49
2021/12/20 10:23:30;;;;;;;12.00;3.13;;;7.70;71.20;;;;;;5004470;28;20460;-49
2021/12/20 10:26:13;;;;;;;6.93;1.97;;;7.60;70.40;;;;;;4985021;28;20860;-49
2021/12/20 10:28:41;;;;;;;5.47;2.10;;;7.60;71.20;;;;;;5003720;28;20615;-49
2021/12/20 10:31:22;;;;;;;4.23;2.20;;;7.70;71.10;;;;;;5003169;28;20498;-49
2021/12/20 10:33:56;;;;;;;9.20;2.33;;;7.60;70.80;;;;;;5005805;28;20547;-49
2021/12/20 10:36:24;;;;;;;20.47;2.90;;;7.60;71.30;;;;;;5001372;28;20467;-49
2021/12/20 10:38:56;;;;;;;6.97;2.43;;;7.60;71.70;;;;;;4983974;28;21026;-49
2021/12/20 10:41:35;;;;;;;9.30;2.53;;;7.50;71.60;;;;;;5000917;28;20970;-49
2021/12/20 10:44:14;;;;;;;8.30;2.53;;;7.50;70.00;;;;;;5003848;28;20923;-49
2021/12/20 10:46:47;;;;;;;4.90;2.20;;;7.50;68.90;;;;;;5002899;28;20471;-49
2021/12/20 10:49:15;;;;;;;8.10;2.70;;;7.40;69.40;;;;;;5002790;28;20470;-49
2021/12/20 10:51:48;;;;;;;8.27;3.10;;;7.40;68.30;;;;;;4996506;28;20480;-49
2021/12/20 10:54:19;;;;;;;4.77;1.87;;;7.30;68.50;;;;;;4977039;28;20556;-49
2021/12/20 10:56:58;;;;;;;2.67;1.90;;;7.40;68.30;;;;;;4982392;28;20957;-49
2021/12/20 10:59:26;;;;;;;8.30;3.47;;;7.40;68.00;;;;;;4980757;28;20479;-50
2021/12/20 11:04:47;;;;;;;5.40;2.20;;;7.60;68.80;;;;;;5003059;28;20464;-49
2021/12/20 11:09:50;;;;;;;4.20;2.10;;;7.50;67.80;;;;;;5000674;28;20473;-49
2021/12/20 11:12:26;;;;;;;5.40;2.07;;;7.50;66.70;;;;;;5000232;28;20497;-49
2021/12/20 11:14:59;;;;;;;3.47;2.10;;;7.40;65.80;;;;;;4998647;28;20546;-49
2021/12/20 11:17:26;;;;;;;5.97;2.07;;;7.30;65.20;;;;;;5001433;28;21131;-49
2021/12/20 11:19:55;;;;;;;5.23;2.47;;;7.30;66.10;;;;;;4985438;28;20476;-49
2021/12/20 11:22:27;;;;;;;3.93;1.27;;;7.20;65.30;;;;;;5002595;28;20468;-49
2021/12/20 11:25:00;;;;;;;3.97;1.13;;;7.20;64.60;;;;;;4985719;28;20540;-49
2021/12/20 11:27:33;;;;;;;2.50;1.83;;;7.10;63.30;;;;;;5001887;28;20488;-49
2021/12/20 11:30:16;;;;;;;5.63;1.63;;;7.00;62.90;;;;;;5000995;28;20514;-49
2021/12/20 11:32:44;;;;;;;4.67;1.70;;;7.00;64.00;;;;;;5003022;28;20863;-49
2021/12/20 11:35:14;;;;;;;4.73;1.23;;;6.90;62.80;;;;;;5000942;28;20464;-49
2021/12/20 11:37:41;;;;;;;3.53;1.70;;;6.90;62.80;;;;;;5000717;28;20482;-49
2021/12/20 11:40:10;;;;;;;2.70;1.17;;;7.00;64.30;;;;;;4996953;28;20472;-49
2021/12/20 11:42:37;;;;;;;1.57;0.90;;;6.90;63.30;;;;;;5001327;28;20460;-49
2021/12/20 11:45:07;;;;;;;3.53;1.73;;;6.90;63.60;;;;;;5001567;28;20475;-49
2021/12/20 11:47:46;;;;;;;1.10;1.00;;;7.00;65.10;;;;;;4984185;28;20465;-49
2021/12/20 11:50:16;;;;;;;1.50;0.97;;;7.10;63.60;;;;;;4999868;28;21048;-49
2021/12/20 11:52:45;;;;;;;2.70;1.73;;;7.00;61.90;;;;;;4997902;28;20482;-49
2021/12/20 11:55:20;;;;;;;2.17;1.07;;;7.00;60.80;;;;;;4985854;28;20468;-49
2021/12/20 11:57:54;;;;;;;3.40;1.67;;;6.90;59.70;;;;;;5000143;28;20491;-49
2021/12/20 12:00:33;;;;;;;3.73;1.20;;;6.90;60.60;;;;;;4969820;28;20464;-49
2021/12/20 12:03:14;;;;;;;5.30;1.53;;;6.90;60.70;;;;;;4982860;28;20466;-49
2021/12/20 12:05:54;;;;;;;3.70;1.90;;;6.90;60.30;;;;;;4988255;28;20460;-49
2021/12/20 12:08:41;;;;;;;4.80;1.30;;;6.90;60.20;;;;;;4996990;28;20548;-49
2021/12/20 12:11:08;;;;;;;3.37;1.43;;;6.90;60.70;;;;;;4985610;28;21039;-49
2021/12/20 12:14:04;;;;;;;3.90;1.40;;;7.00;63.00;;;;;;5000295;28;20464;-49
2021/12/20 12:16:53;;;;;;;4.30;1.90;;;7.00;61.80;;;;;;5000805;28;20976;-49
2021/12/20 12:19:39;;;;;;;1.30;1.23;;;7.00;61.80;;;;;;4985200;28;20820;-49
2021/12/20 12:22:26;;;;;;;3.50;1.60;;;7.10;62.00;;;;;;5000763;28;20522;-49
2021/12/20 12:24:55;;;;;;;2.87;1.50;;;7.10;61.20;;;;;;4987089;28;20547;-49
2021/12/20 12:27:31;;;;;;;2.70;1.43;;;7.10;61.60;;;;;;4999274;28;20467;-49
2021/12/20 12:30:16;;;;;;;2.07;1.40;;;7.10;61.00;;;;;;4997128;28;21031;-49
2021/12/20 12:32:48;;;;;;;3.67;2.30;;;7.20;61.70;;;;;;4998708;28;20823;-49
2021/12/20 12:35:49;;;;;;;24.83;1.77;;;7.30;62.00;;;;;;5000219;28;20473;-49
2021/12/20 12:38:33;;;;;;;1.20;1.10;;;7.30;61.60;;;;;;4994191;28;20825;-49
2021/12/20 12:41:09;;;;;;;1.27;1.17;;;7.40;59.00;;;;;;4998108;28;20544;-49
2021/12/20 12:44:00;;;;;;;2.97;1.37;;;7.40;59.10;;;;;;4997528;28;20452;-49
2021/12/20 12:46:36;;;;;;;4.47;2.10;;;7.30;59.20;;;;;;5003585;28;20468;-49
2021/12/20 12:49:25;;;;;;;1.63;1.33;;;7.30;58.50;;;;;;4985624;28;20488;-49
2021/12/20 12:52:28;;;;;;;5.30;1.60;;;7.30;61.00;;;;;;4977787;28;20493;-49
2021/12/20 12:55:08;;;;;;;3.47;1.70;;;7.40;61.00;;;;;;4988568;28;20986;-49
2021/12/20 12:57:38;;;;;;;3.27;1.57;;;7.30;62.00;;;;;;5001581;28;20464;-49
2021/12/20 13:00:09;;;;;;;8.07;1.50;;;7.40;62.60;;;;;;5003553;28;20991;-49
2021/12/20 13:02:39;;;;;;;3.37;1.70;;;7.50;63.70;;;;;;5003335;28;20538;-49
2021/12/20 13:05:14;;;;;;;1.27;1.07;;;7.50;63.30;;;;;;4997894;28;20468;-49
2021/12/20 13:08:03;;;;;;;3.43;1.20;;;7.50;61.60;;;;;;5000162;28;20551;-49
2021/12/20 13:10:39;;;;;;;2.90;1.20;;;7.50;61.50;;;;;;5000652;28;20539;-49
2021/12/20 13:13:26;;;;;;;3.60;1.30;;;7.50;62.20;;;;;;4994457;28;20527;-49
2021/12/20 13:15:59;;;;;;;5.33;1.97;;;7.60;61.60;;;;;;4988735;28;20467;-49
2021/12/20 13:18:31;;;;;;;3.67;1.53;;;7.60;61.10;;;;;;5000513;28;20828;-49
2021/12/20 13:21:04;;;;;;;6.53;1.60;;;7.60;60.10;;;;;;4998529;28;20514;-49
2021/12/20 13:23:37;;;;;;;2.83;1.40;;;7.60;59.90;;;;;;4987877;28;20461;-49
2021/12/20 13:26:11;;;;;;;3.40;1.57;;;7.70;60.90;;;;;;5000101;28;20457;-49
2021/12/20 13:28:42;;;;;;;1.60;1.50;;;7.70;60.70;;;;;;4997785;28;20452;-49